Terminal Aerodrome Forecast
Issued by NWS Cleveland, OH

Home | Current Version | Previous Version | Graphics & Text | Print | Product List | Glossary On
Versions: 1 2 3 4 5 6 7 8 9 10 11 12 13 14 15 16
313
FTUS41 KCLE 212340
TAFCAK
TAF
KCAK 212340Z 2200/2224 18012KT P6SM BKN015 OVC040
     FM220200 21010KT P6SM VCTS BKN020CB
      TEMPO 2202/2204 -SHRA BKN012
     FM220400 23008KT P6SM BKN020
     FM221000 25006KT 6SM BR BKN012
     FM221400 26007KT P6SM BKN025
     FM221700 27010KT P6SM SCT040=

USA.gov is the U.S. government's official web portal to all federal, state and local government web resources and services.